Time;durP1;ratioP1;P1;durP2;ratioP2;P2;SDS_P1;SDS_P2;PMS_P1;PMS_P2;Temp;Humidity;BMP_temperature;BMP_pressure;BME280_temperature;BME280_humidity;BME280_pressure;Samples;Min_cycle;Max_cycle;Signal;HPM_P1;HPM_P2
2021/12/08 00:02:15;;;;;;;27.20;14.67;;;-1.10;99.90;-1.50;99779.00;;;;5013953;27;89506;-67
2021/12/08 00:04:41;;;;;;;27.90;14.83;;;-1.10;99.90;-1.50;99770.00;;;;5006962;27;88866;-65
2021/12/08 00:07:08;;;;;;;31.27;15.00;;;-1.10;99.90;-1.50;99774.00;;;;4995910;27;104600;-64
2021/12/08 00:09:48;;;;;;;24.70;15.33;;;-1.10;99.90;-1.50;99774.00;;;;4996792;27;87329;-66
2021/12/08 00:15:00;;;;;;;26.27;15.10;;;-1.10;99.90;-1.60;99757.00;;;;4992977;28;87714;-66
2021/12/08 00:17:26;;;;;;;30.53;16.07;;;-1.30;99.90;-1.60;99754.00;;;;5002091;27;88587;-66
2021/12/08 00:19:52;;;;;;;29.67;16.43;;;-1.30;99.90;-1.60;99753.00;;;;5014556;27;101618;-65
2021/12/08 00:22:18;;;;;;;26.37;16.20;;;-1.10;99.90;-1.60;99746.00;;;;5016037;27;88205;-66
2021/12/08 00:24:44;;;;;;;22.63;14.33;;;-1.30;99.90;-1.60;99750.00;;;;5009263;27;117743;-65
2021/12/08 00:27:11;;;;;;;26.03;17.10;;;-1.30;99.90;-1.60;99742.00;;;;4996245;27;87710;-66
2021/12/08 00:29:37;;;;;;;30.67;15.27;;;-1.30;99.90;-1.70;99746.00;;;;4995074;27;108783;-67
2021/12/08 00:32:04;;;;;;;33.53;17.50;;;-1.30;99.90;-1.70;99740.00;;;;5024444;27;92038;-66
2021/12/08 00:34:31;;;;;;;25.27;16.40;;;-1.30;99.90;-1.70;99729.00;;;;5015687;27;87828;-65
2021/12/08 00:37:00;;;;;;;30.37;17.23;;;-1.30;99.90;-1.70;99723.00;;;;5014276;27;87803;-66
2021/12/08 00:39:26;;;;;;;25.50;14.17;;;-0.90;99.90;-1.70;99727.00;;;;5016602;27;87891;-66
2021/12/08 00:41:52;;;;;;;28.73;16.67;;;-1.40;99.90;-1.70;99729.00;;;;5003838;27;90785;-65
2021/12/08 00:44:18;;;;;;;29.40;17.33;;;-1.30;99.90;-1.70;99717.00;;;;4995831;27;109118;-66
2021/12/08 00:46:44;;;;;;;27.17;17.00;;;-1.40;99.90;-1.70;99713.00;;;;4993970;27;112278;-64
2021/12/08 00:49:13;;;;;;;30.40;17.10;;;-1.40;99.90;-1.70;99707.00;;;;4995830;27;87698;-67
2021/12/08 00:51:39;;;;;;;33.93;17.80;;;-1.40;99.90;-1.80;99700.00;;;;4992951;27;90280;-65
2021/12/08 00:54:05;;;;;;;27.53;15.80;;;-1.40;99.90;-1.70;99706.00;;;;4995576;28;88012;-65
2021/12/08 00:56:31;;;;;;;28.03;17.30;;;-1.40;99.90;-1.80;99709.00;;;;4995326;27;87876;-66
2021/12/08 00:58:57;;;;;;;26.80;16.57;;;-1.40;99.90;-1.80;99697.00;;;;4994305;27;108562;-66
2021/12/08 01:01:24;;;;;;;25.03;16.53;;;-1.50;99.90;-1.80;99683.00;;;;4996059;27;92205;-66
2021/12/08 01:03:51;;;;;;;33.93;17.77;;;-1.50;99.90;-1.80;99688.00;;;;5012823;27;87679;-67
2021/12/08 01:06:17;;;;;;;29.13;17.37;;;-1.50;99.90;-1.80;99676.00;;;;5015040;27;91164;-67
2021/12/08 01:08:44;;;;;;;34.73;16.27;;;-1.40;99.90;-1.80;99673.00;;;;5015629;27;87559;-65
2021/12/08 01:11:18;;;;;;;28.43;17.13;;;-1.50;99.90;-1.80;99679.00;;;;5011518;27;117778;-65
2021/12/08 01:13:46;;;;;;;33.63;17.70;;;-1.50;99.90;-1.80;99673.00;;;;4997017;27;88560;-65
2021/12/08 01:16:13;;;;;;;28.67;17.10;;;-1.50;99.90;-1.80;99673.00;;;;4995343;27;87864;-66
2021/12/08 01:18:39;;;;;;;28.83;17.60;;;-1.50;99.90;-1.80;99671.00;;;;4994748;28;87666;-66
2021/12/08 01:21:09;;;;;;;29.00;18.07;;;-1.50;99.90;-1.90;99662.00;;;;4995121;27;88517;-64
2021/12/08 01:23:36;;;;;;;26.60;18.30;;;-1.50;99.90;-1.90;99659.00;;;;4996121;27;109661;-64
2021/12/08 01:26:04;;;;;;;34.07;19.07;;;-1.50;99.90;-1.90;99666.00;;;;5015764;27;87999;-65
2021/12/08 01:28:30;;;;;;;29.87;19.23;;;-1.50;99.90;-1.90;99660.00;;;;5015663;27;87858;-64
2021/12/08 01:30:59;;;;;;;33.40;16.10;;;-1.20;99.90;-1.90;99672.00;;;;5013030;27;118001;-64
2021/12/08 01:33:25;;;;;;;31.80;17.60;;;-1.50;99.90;-1.90;99661.00;;;;5014552;27;89769;-66
2021/12/08 01:35:52;;;;;;;33.90;17.47;;;-1.60;99.90;-1.90;99662.00;;;;5014064;27;87831;-66
2021/12/08 01:38:17;;;;;;;29.13;17.10;;;-1.60;99.90;-1.90;99651.00;;;;5014018;27;87802;-64
2021/12/08 01:40:43;;;;;;;30.63;17.80;;;-1.60;99.90;-1.90;99653.00;;;;5013734;27;115655;-65
2021/12/08 01:43:24;;;;;;;23.37;16.70;;;-1.50;99.90;-1.90;99653.00;;;;5013718;27;100443;-65
2021/12/08 01:45:59;;;;;;;28.97;18.07;;;-1.50;99.90;-1.90;99653.00;;;;4997614;27;87528;-66
2021/12/08 01:48:28;;;;;;;35.53;18.67;;;-1.50;99.90;-1.90;99652.00;;;;4995668;27;86972;-65
2021/12/08 01:51:04;;;;;;;33.70;17.47;;;-1.60;99.90;-2.00;99647.00;;;;5008941;27;88778;-64
2021/12/08 01:53:30;;;;;;;22.90;14.93;;;-1.70;99.90;-2.00;99647.00;;;;5012258;27;111709;-65
2021/12/08 01:55:56;;;;;;;26.73;16.23;;;-1.60;99.90;-2.00;99647.00;;;;5013358;27;106142;-65
2021/12/08 01:58:22;;;;;;;28.83;17.53;;;-1.60;99.90;-2.00;99635.00;;;;5001077;27;87834;-65
2021/12/08 02:01:00;;;;;;;36.37;17.93;;;-0.70;99.90;-2.00;99617.00;;;;4994363;28;88654;-65
2021/12/08 02:03:28;;;;;;;27.40;16.90;;;-1.50;99.90;-2.00;99602.00;;;;4995115;27;110010;-65
2021/12/08 02:05:55;;;;;;;34.40;17.50;;;-1.60;99.90;-2.00;99613.00;;;;4993975;27;100572;-64
2021/12/08 02:08:22;;;;;;;22.70;15.83;;;-1.60;99.90;-2.00;99618.00;;;;4995111;27;87886;-64
2021/12/08 02:10:48;;;;;;;35.20;19.03;;;-1.60;99.90;-2.00;99617.00;;;;4994189;28;88880;-64
2021/12/08 02:13:15;;;;;;;26.73;15.87;;;-1.60;99.90;-2.00;99621.00;;;;4997157;27;87967;-64
2021/12/08 02:15:41;;;;;;;32.80;17.50;;;-1.60;99.90;-2.00;99618.00;;;;4997223;27;87952;-64
2021/12/08 02:18:12;;;;;;;42.10;18.23;;;-1.60;99.90;-2.00;99619.00;;;;4999958;27;104602;-63
2021/12/08 02:20:38;;;;;;;33.20;17.00;;;-1.60;99.90;-2.00;99607.00;;;;4997004;28;89890;-63
2021/12/08 02:23:04;;;;;;;23.73;15.37;;;-1.70;99.90;-2.00;99597.00;;;;5008876;27;97614;-66
2021/12/08 02:25:30;;;;;;;31.47;19.20;;;-1.60;99.90;-2.00;99582.00;;;;5016731;27;113882;-65
2021/12/08 02:28:00;;;;;;;23.80;16.77;;;-1.60;99.90;-2.00;99574.00;;;;5016562;27;104762;-67
2021/12/08 02:46:49;;;;;;;25.07;16.70;;;-0.80;99.90;-2.00;99532.00;;;;5006405;27;88741;-66
2021/12/08 02:49:17;;;;;;;28.53;19.23;;;-1.20;99.90;-2.00;99524.00;;;;4998010;28;87772;-64
2021/12/08 02:51:43;;;;;;;25.30;16.77;;;-1.70;99.90;-2.00;99519.00;;;;5013670;27;105069;-65
2021/12/08 02:54:10;;;;;;;30.20;16.57;;;-1.60;99.90;-2.10;99513.00;;;;5017041;27;87914;-65
2021/12/08 02:56:35;;;;;;;28.33;17.07;;;-1.00;99.90;-2.10;99517.00;;;;5016814;27;91542;-66
2021/12/08 02:59:03;;;;;;;30.10;15.30;;;-1.60;99.90;-2.00;99524.00;;;;5017310;27;87870;-65
2021/12/08 03:01:30;;;;;;;28.53;14.77;;;-1.70;99.90;-2.00;99523.00;;;;5015814;27;88787;-66
2021/12/08 03:03:55;;;;;;;33.20;21.07;;;-1.70;99.90;-2.10;99528.00;;;;4997611;27;88485;-64
2021/12/08 03:06:21;;;;;;;26.13;16.63;;;-1.70;99.90;-2.10;99523.00;;;;4996378;27;100400;-65
2021/12/08 03:08:48;;;;;;;24.80;17.10;;;-1.70;99.90;-2.10;99518.00;;;;4997653;27;87843;-64
2021/12/08 03:11:14;;;;;;;27.73;15.90;;;-1.70;99.90;-2.00;99527.00;;;;4996325;27;89123;-67
2021/12/08 03:13:45;;;;;;;22.87;15.60;;;-1.20;99.90;-2.00;99523.00;;;;4994459;27;88873;-67
2021/12/08 03:16:13;;;;;;;25.43;16.50;;;-1.60;99.90;-1.90;99524.00;;;;4995072;27;87844;-65
2021/12/08 03:18:40;;;;;;;25.33;16.60;;;-1.60;99.90;-1.90;99531.00;;;;4997385;27;87950;-64
2021/12/08 03:21:10;;;;;;;26.50;16.60;;;-1.60;99.90;-1.90;99531.00;;;;4996713;28;88004;-64
2021/12/08 03:26:12;;;;;;;26.07;16.30;;;-1.60;99.90;-1.90;99532.00;;;;4996822;27;87845;-66
2021/12/08 03:28:45;;;;;;;32.47;17.90;;;-1.50;99.90;-1.90;99535.00;;;;4998239;27;86891;-66
2021/12/08 03:31:16;;;;;;;31.27;16.33;;;-1.60;99.90;-1.90;99539.00;;;;4996809;27;87954;-65
2021/12/08 03:33:43;;;;;;;29.13;15.70;;;-1.60;99.90;-1.90;99531.00;;;;4998010;27;88779;-65
2021/12/08 03:36:09;;;;;;;25.23;13.57;;;-1.50;99.90;-1.90;99528.00;;;;4997484;27;88956;-65
2021/12/08 03:38:35;;;;;;;34.17;17.17;;;-1.50;99.90;-1.90;99531.00;;;;4997120;27;89865;-66
2021/12/08 03:41:03;;;;;;;36.33;16.73;;;-1.60;99.90;-1.90;99531.00;;;;4996409;28;88853;-67
2021/12/08 03:43:30;;;;;;;30.60;15.37;;;-1.60;99.90;-2.00;99524.00;;;;4997729;27;89147;-66
2021/12/08 03:45:57;;;;;;;29.33;16.37;;;-1.50;99.90;-2.00;99519.00;;;;4995892;27;87870;-66
2021/12/08 03:48:45;;;;;;;26.40;17.37;;;-1.60;99.90;-2.10;99523.00;;;;4998199;27;88009;-66
2021/12/08 03:51:11;;;;;;;26.50;15.87;;;-1.60;99.90;-2.10;99515.00;;;;4996358;27;88122;-65
2021/12/08 03:53:37;;;;;;;28.63;16.80;;;-1.70;99.90;-2.10;99505.00;;;;4996701;27;88205;-66
2021/12/08 03:56:03;;;;;;;21.77;15.57;;;-1.20;99.90;-2.10;99504.00;;;;5006349;27;105892;-66
2021/12/08 03:58:29;;;;;;;24.17;17.23;;;-1.80;99.90;-2.10;99500.00;;;;5016121;27;100915;-66
2021/12/08 04:00:57;;;;;;;20.33;12.80;;;-1.80;99.90;-2.20;99495.00;;;;5014553;27;118334;-67
2021/12/08 04:03:26;;;;;;;23.17;16.17;;;-1.80;99.90;-2.20;99492.00;;;;5016051;27;88981;-67
2021/12/08 04:08:29;;;;;;;25.60;15.27;;;-1.20;99.90;-2.20;99486.00;;;;4995444;27;87704;-67
2021/12/08 04:10:56;;;;;;;26.87;16.70;;;-1.10;99.90;-2.20;99485.00;;;;4995702;27;88116;-66
2021/12/08 04:13:29;;;;;;;24.40;16.50;;;-1.80;99.90;-2.20;99481.00;;;;4995781;27;87511;-65
2021/12/08 04:15:56;;;;;;;21.17;14.23;;;-1.80;99.90;-2.20;99477.00;;;;4996136;28;90552;-68
2021/12/08 04:18:22;;;;;;;21.77;13.67;;;-1.20;99.90;-2.20;99484.00;;;;5002623;27;99325;-67
2021/12/08 04:20:53;;;;;;;25.13;13.57;;;-1.80;99.90;-2.20;99478.00;;;;5015814;27;105486;-68
2021/12/08 04:23:22;;;;;;;23.60;15.03;;;-1.70;99.90;-2.20;99495.00;;;;5016514;27;87882;-67
2021/12/08 04:25:54;;;;;;;23.50;14.33;;;-1.80;99.90;-2.20;99490.00;;;;5015002;27;88774;-66
2021/12/08 04:28:28;;;;;;;18.33;14.60;;;-1.60;99.90;-2.30;99495.00;;;;5016670;27;87629;-66
2021/12/08 04:31:23;;;;;;;28.77;15.63;;;-1.90;99.90;-2.30;99493.00;;;;5016086;27;88447;-68
2021/12/08 04:33:55;;;;;;;27.20;14.47;;;-1.70;99.90;-2.30;99493.00;;;;4996211;27;87723;-68
2021/12/08 04:36:23;;;;;;;21.97;14.03;;;-1.90;99.90;-2.30;99489.00;;;;4994709;27;87742;-66
2021/12/08 04:38:53;;;;;;;21.10;14.47;;;-1.90;99.90;-2.30;99491.00;;;;4995995;27;88070;-67
2021/12/08 04:41:29;;;;;;;24.20;14.73;;;-1.90;99.90;-2.30;99488.00;;;;4995610;27;88971;-68
2021/12/08 04:44:09;;;;;;;25.57;15.30;;;-1.90;99.90;-2.30;99491.00;;;;4997188;27;88154;-66
2021/12/08 04:46:58;;;;;;;23.73;13.70;;;-1.90;99.90;-2.30;99488.00;;;;4995509;27;87669;-66
2021/12/08 04:52:26;;;;;;;21.17;14.10;;;-1.90;99.90;-2.30;99479.00;;;;4992449;27;88987;-67
2021/12/08 05:04:03;;;;;;;32.03;15.43;;;-1.90;99.90;-2.30;99475.00;;;;5012900;27;87814;-65
2021/12/08 05:06:59;;;;;;;28.43;15.00;;;-1.60;99.90;-2.20;99485.00;;;;5013311;27;88532;-66
2021/12/08 05:09:34;;;;;;;24.17;11.83;;;-1.90;99.90;-2.20;99485.00;;;;4995683;27;87837;-66
2021/12/08 05:12:13;;;;;;;23.93;14.23;;;-1.80;99.90;-2.20;99481.00;;;;4994925;27;96255;-66
2021/12/08 05:14:47;;;;;;;24.70;15.83;;;-1.80;99.90;-2.20;99488.00;;;;5016777;27;89683;-67
2021/12/08 05:17:32;;;;;;;22.17;13.80;;;-1.80;99.90;-2.10;99490.00;;;;5003145;27;89090;-67
2021/12/08 05:20:31;;;;;;;25.97;14.80;;;-1.70;99.90;-2.10;99488.00;;;;5014616;27;88562;-67
2021/12/08 05:23:13;;;;;;;20.73;14.37;;;-1.60;99.90;-2.10;99505.00;;;;5015212;27;87735;-66
2021/12/08 05:25:40;;;;;;;25.30;14.27;;;-1.80;99.90;-2.10;99502.00;;;;4996251;27;89038;-66
2021/12/08 05:28:12;;;;;;;32.17;16.27;;;-1.80;99.90;-2.10;99504.00;;;;4994269;27;103189;-66
2021/12/08 05:30:45;;;;;;;19.77;12.93;;;-1.70;99.90;-2.10;99509.00;;;;4994989;28;87523;-65
2021/12/08 05:33:13;;;;;;;23.13;13.97;;;-1.70;99.90;-2.10;99493.00;;;;4994721;27;87783;-65
2021/12/08 05:35:41;;;;;;;26.70;14.30;;;-1.60;99.90;-2.00;99494.00;;;;4995771;27;87726;-67
2021/12/08 05:38:08;;;;;;;25.90;15.43;;;-1.70;99.90;-2.00;99499.00;;;;4995510;28;88634;-68
2021/12/08 05:41:06;;;;;;;22.83;14.00;;;-1.70;99.90;-2.00;99506.00;;;;4994407;27;87737;-67
2021/12/08 05:43:32;;;;;;;23.83;15.23;;;-1.60;99.90;-2.10;99492.00;;;;4987713;27;87663;-65
2021/12/08 05:45:59;;;;;;;21.97;14.43;;;-1.60;99.90;-2.10;99498.00;;;;4994906;27;108413;-67
2021/12/08 05:48:28;;;;;;;20.47;12.80;;;-1.60;99.90;-2.10;99507.00;;;;4998823;27;88140;-66
2021/12/08 05:51:15;;;;;;;24.37;14.10;;;-1.70;99.90;-2.10;99488.00;;;;5009649;27;87852;-66
2021/12/08 05:53:46;;;;;;;23.10;13.77;;;-1.80;99.90;-2.10;99493.00;;;;5018291;27;87639;-66
2021/12/08 05:56:11;;;;;;;19.60;14.30;;;-1.70;99.90;-2.10;99492.00;;;;5018305;27;88314;-67
2021/12/08 05:58:38;;;;;;;21.97;13.73;;;-0.80;99.90;-2.10;99492.00;;;;5016242;27;114748;-66
2021/12/08 06:01:28;;;;;;;22.27;13.33;;;-1.70;99.90;-2.10;99494.00;;;;5018332;27;87853;-66
2021/12/08 06:03:54;;;;;;;17.60;12.10;;;-1.70;99.90;-2.20;99497.00;;;;5016503;27;87142;-67
2021/12/08 06:06:25;;;;;;;20.57;13.10;;;-1.70;99.90;-2.10;99498.00;;;;5017968;27;106837;-67
2021/12/08 06:08:52;;;;;;;20.10;11.93;;;-1.80;99.90;-2.20;99504.00;;;;5016632;27;106737;-66
2021/12/08 06:11:19;;;;;;;22.23;14.47;;;-1.80;99.90;-2.20;99508.00;;;;5017052;27;88741;-67
2021/12/08 06:13:47;;;;;;;29.83;14.23;;;-1.80;99.90;-2.20;99516.00;;;;5006515;27;87894;-66
2021/12/08 06:16:15;;;;;;;22.27;13.10;;;-1.70;99.90;-2.20;99507.00;;;;4997769;27;106217;-68
2021/12/08 06:18:42;;;;;;;22.37;15.30;;;-0.60;99.90;-2.20;99522.00;;;;4995381;27;88096;-66
2021/12/08 06:21:17;;;;;;;25.63;13.90;;;-1.80;99.90;-2.10;99512.00;;;;4997983;27;88089;-64
2021/12/08 06:23:44;;;;;;;20.80;13.67;;;-1.70;99.90;-2.20;99513.00;;;;4997927;27;87978;-66
2021/12/08 06:26:14;;;;;;;23.03;12.77;;;-1.80;99.90;-2.10;99520.00;;;;4998070;27;88034;-68
2021/12/08 06:28:40;;;;;;;24.00;12.23;;;-1.70;99.90;-2.10;99512.00;;;;4999698;27;87285;-68
2021/12/08 06:31:09;;;;;;;26.57;14.10;;;-1.80;99.90;-2.10;99516.00;;;;4997944;27;87614;-66
2021/12/08 06:33:35;;;;;;;19.83;13.80;;;-1.80;99.90;-2.20;99504.00;;;;5011167;27;87765;-66
2021/12/08 06:36:19;;;;;;;25.30;14.87;;;-1.70;99.90;-2.10;99509.00;;;;5015438;27;118211;-66
2021/12/08 06:38:47;;;;;;;25.40;14.73;;;-1.70;99.90;-2.20;99510.00;;;;4997847;27;88809;-66
2021/12/08 06:41:20;;;;;;;19.13;13.90;;;-1.40;99.90;-2.20;99499.00;;;;5010520;27;91684;-67
2021/12/08 06:43:54;;;;;;;25.77;14.53;;;-1.80;99.90;-2.20;99504.00;;;;4997082;27;95052;-67
2021/12/08 06:46:25;;;;;;;23.23;13.13;;;-1.80;99.90;-2.20;99504.00;;;;4997511;27;88527;-68
2021/12/08 06:48:56;;;;;;;25.33;13.60;;;-1.80;99.90;-2.20;99505.00;;;;4998108;27;97803;-67
2021/12/08 06:52:04;;;;;;;22.37;12.70;;;-1.70;99.90;-2.20;99494.00;;;;4994257;27;88003;-67
2021/12/08 06:54:40;;;;;;;23.83;13.93;;;-1.70;99.90;-2.20;99492.00;;;;4973518;27;88598;-67
2021/12/08 06:57:18;;;;;;;23.00;12.93;;;-1.80;99.90;-2.20;99492.00;;;;5000313;27;88510;-68
2021/12/08 07:00:23;;;;;;;21.50;13.40;;;-1.80;99.90;-2.20;99491.00;;;;4993323;27;87840;-66
2021/12/08 07:02:53;;;;;;;22.43;12.87;;;-1.80;99.90;-2.20;99487.00;;;;4992498;27;89167;-67
2021/12/08 07:05:30;;;;;;;21.50;13.97;;;-1.80;99.90;-2.10;99495.00;;;;4996710;27;87593;-69
2021/12/08 07:08:07;;;;;;;22.17;12.00;;;-1.80;99.90;-2.10;99490.00;;;;4994214;27;87590;-66
2021/12/08 07:10:39;;;;;;;21.80;13.10;;;-1.80;99.90;-2.10;99497.00;;;;4992710;27;88015;-65
2021/12/08 07:13:10;;;;;;;23.40;12.23;;;-1.70;99.90;-2.10;99514.00;;;;4993580;27;104333;-68
2021/12/08 07:16:06;;;;;;;27.03;13.37;;;-1.70;99.90;-2.00;99509.00;;;;4994546;27;87580;-67
2021/12/08 07:18:52;;;;;;;23.83;14.00;;;-1.70;99.90;-2.00;99517.00;;;;5001826;27;87884;-68
2021/12/08 07:21:21;;;;;;;18.83;11.83;;;-1.60;99.90;-1.90;99514.00;;;;4992656;27;89140;-67
2021/12/08 07:23:57;;;;;;;18.80;13.27;;;-1.30;99.90;-1.80;99525.00;;;;4994567;27;87855;-65
2021/12/08 07:26:29;;;;;;;24.40;15.47;;;-1.60;99.90;-1.80;99514.00;;;;5000470;27;88182;-66
2021/12/08 07:28:58;;;;;;;47.00;22.10;;;-1.50;99.90;-1.60;99509.00;;;;4992422;27;99465;-67
2021/12/08 07:31:36;;;;;;;35.80;23.77;;;-2.10;99.90;-1.60;99507.00;;;;4991691;27;88640;-66
2021/12/08 07:34:06;;;;;;;18.50;12.17;;;-1.30;99.90;-1.40;99505.00;;;;4996302;27;87910;-67
2021/12/08 07:36:37;;;;;;;136.87;65.57;;;-1.20;99.90;-1.30;99519.00;;;;5004305;27;87723;-66
2021/12/08 07:39:14;;;;;;;47.53;25.30;;;0.00;99.90;-1.20;99519.00;;;;4995943;27;88899;-67
2021/12/08 07:41:46;;;;;;;78.57;43.83;;;-1.00;99.90;-1.10;99520.00;;;;4993248;27;88498;-67
2021/12/08 07:44:14;;;;;;;41.30;20.90;;;-0.70;99.90;-1.00;99517.00;;;;4993896;27;87981;-67
2021/12/08 07:46:54;;;;;;;26.60;13.87;;;-0.70;99.90;-0.90;99520.00;;;;4997096;27;86963;-68
2021/12/08 07:49:27;;;;;;;20.00;12.53;;;-0.50;99.90;-0.80;99509.00;;;;4994039;27;109523;-66
2021/12/08 07:52:06;;;;;;;22.90;14.70;;;-0.50;99.90;-0.70;99498.00;;;;4993116;27;88620;-67
2021/12/08 07:54:33;;;;;;;24.00;12.23;;;-0.40;99.90;-0.60;99497.00;;;;4992651;27;95974;-65
2021/12/08 07:57:06;;;;;;;24.60;13.63;;;-0.30;99.90;-0.50;99492.00;;;;4993830;27;87938;-66
2021/12/08 07:59:32;;;;;;;19.63;10.77;;;-0.10;99.90;-0.40;99490.00;;;;4993384;27;88854;-65
2021/12/08 08:02:06;;;;;;;22.33;12.53;;;-0.10;99.90;-0.40;99486.00;;;;4993139;27;87927;-66
2021/12/08 08:04:41;;;;;;;26.43;13.57;;;0.00;99.90;-0.30;99478.00;;;;4993191;27;88253;-66
2021/12/08 08:07:08;;;;;;;26.03;13.17;;;0.00;99.90;-0.30;99483.00;;;;4999635;27;95546;-66
2021/12/08 08:09:40;;;;;;;24.90;13.23;;;0.00;99.90;-0.30;99495.00;;;;5000516;27;88928;-66
2021/12/08 08:12:17;;;;;;;26.20;14.83;;;0.20;99.90;-0.40;99492.00;;;;4993745;27;88267;-66
2021/12/08 08:14:51;;;;;;;23.13;12.47;;;0.00;99.90;-0.40;99485.00;;;;5001590;27;93115;-66
2021/12/08 08:17:25;;;;;;;21.97;10.87;;;0.00;99.90;-0.30;99484.00;;;;4992403;27;87818;-66
2021/12/08 08:19:51;;;;;;;28.00;13.80;;;0.00;99.90;-0.40;99472.00;;;;4991635;27;89170;-67
2021/12/08 08:22:27;;;;;;;21.17;11.77;;;-0.10;99.90;-0.40;99487.00;;;;4991336;27;117438;-68
2021/12/08 08:24:56;;;;;;;22.87;12.47;;;-0.10;99.90;-0.50;99462.00;;;;4992596;27;87747;-66
2021/12/08 08:27:23;;;;;;;21.20;11.23;;;-0.10;99.90;-0.50;99465.00;;;;4992747;27;87652;-66
2021/12/08 08:29:49;;;;;;;21.30;12.70;;;-0.20;99.90;-0.50;99469.00;;;;4992376;27;88594;-67
2021/12/08 08:32:24;;;;;;;28.87;14.67;;;-0.30;99.90;-0.50;99466.00;;;;4992328;27;94589;-67
2021/12/08 08:34:58;;;;;;;17.40;11.20;;;-0.30;99.90;-0.50;99471.00;;;;4991922;27;87696;-68
2021/12/08 08:37:24;;;;;;;18.67;11.90;;;0.60;99.90;-0.60;99464.00;;;;4993808;27;87317;-67
2021/12/08 08:39:59;;;;;;;18.50;11.90;;;-0.20;99.90;-0.60;99450.00;;;;4992723;27;117403;-65
2021/12/08 08:42:33;;;;;;;17.33;10.17;;;-0.30;99.90;-0.60;99466.00;;;;4994662;27;87905;-66
2021/12/08 08:45:12;;;;;;;20.27;10.80;;;-0.30;99.90;-0.50;99465.00;;;;4991674;27;99476;-66
2021/12/08 08:47:52;;;;;;;19.57;11.07;;;-0.20;99.90;-0.40;99469.00;;;;4993082;27;87572;-67
2021/12/08 08:51:01;;;;;;;19.43;10.90;;;0.90;99.90;-0.30;99471.00;;;;4993973;27;87751;-66
2021/12/08 08:53:34;;;;;;;15.83;10.33;;;0.00;99.90;-0.20;99475.00;;;;4991839;27;103707;-67
2021/12/08 08:56:26;;;;;;;21.73;11.83;;;0.00;99.90;-0.20;99465.00;;;;5008045;27;103123;-66
2021/12/08 08:59:05;;;;;;;28.33;11.73;;;0.10;99.90;-0.20;99461.00;;;;4993053;27;99740;-66
2021/12/08 09:01:38;;;;;;;19.53;11.17;;;0.10;99.90;-0.20;99445.00;;;;4992395;27;98275;-66
2021/12/08 09:04:17;;;;;;;22.47;12.03;;;0.10;99.90;-0.20;99438.00;;;;4996874;27;88006;-66
2021/12/08 09:06:50;;;;;;;21.70;11.03;;;0.10;99.90;-0.10;99444.00;;;;4990337;27;87744;-67
2021/12/08 09:09:24;;;;;;;18.27;11.13;;;0.20;99.90;-0.10;99437.00;;;;4995860;27;101935;-65
2021/12/08 09:12:05;;;;;;;17.80;10.10;;;0.20;99.90;0.10;99456.00;;;;4992585;27;91053;-68
2021/12/08 09:14:38;;;;;;;20.73;10.83;;;0.30;99.90;0.20;99453.00;;;;4993763;27;87773;-67
2021/12/08 09:17:22;;;;;;;20.67;11.23;;;0.50;99.90;0.40;99446.00;;;;4992245;27;106176;-65
2021/12/08 09:20:04;;;;;;;22.70;11.33;;;1.70;99.90;0.50;99454.00;;;;4991648;27;94041;-66
2021/12/08 09:22:40;;;;;;;22.10;14.00;;;0.70;99.90;0.60;99445.00;;;;4999018;27;88617;-64
2021/12/08 09:25:25;;;;;;;21.00;11.23;;;0.80;99.90;0.70;99438.00;;;;4991506;27;88068;-65
2021/12/08 09:27:56;;;;;;;19.73;12.37;;;0.90;99.90;0.80;99440.00;;;;4993605;27;88278;-65
2021/12/08 09:30:33;;;;;;;20.27;10.03;;;1.10;99.90;0.80;99445.00;;;;4992091;27;87043;-66
2021/12/08 09:33:11;;;;;;;18.90;11.57;;;1.10;99.90;0.80;99434.00;;;;4991827;27;89060;-66
2021/12/08 09:35:41;;;;;;;26.50;10.83;;;1.10;99.90;0.90;99449.00;;;;4992518;27;90923;-66
2021/12/08 09:38:28;;;;;;;18.67;10.33;;;1.10;99.90;0.90;99445.00;;;;4989603;27;88821;-65
2021/12/08 09:41:18;;;;;;;16.47;10.93;;;1.10;99.90;0.90;99439.00;;;;5006759;27;87595;-66
2021/12/08 09:44:15;;;;;;;12.90;9.90;;;1.20;99.90;0.90;99442.00;;;;4991682;27;92481;-64
2021/12/08 09:46:45;;;;;;;19.67;10.53;;;1.50;99.90;1.00;99437.00;;;;4985501;27;111725;-65
2021/12/08 09:49:16;;;;;;;18.63;10.90;;;1.20;99.90;1.10;99446.00;;;;4991406;27;100546;-67
2021/12/08 09:51:43;;;;;;;17.10;8.53;;;1.20;99.90;1.20;99431.00;;;;4993760;27;87654;-65
2021/12/08 09:54:09;;;;;;;13.87;9.20;;;2.20;99.90;1.30;99443.00;;;;4996026;27;88229;-63
2021/12/08 09:56:35;;;;;;;11.67;9.10;;;1.40;99.90;1.30;99431.00;;;;5000163;27;88599;-66
2021/12/08 09:59:07;;;;;;;14.80;10.33;;;1.40;99.90;1.20;99420.00;;;;4997862;27;88210;-65
2021/12/08 10:01:34;;;;;;;15.00;9.87;;;1.40;99.90;1.20;99417.00;;;;4992134;27;88649;-65
2021/12/08 10:04:00;;;;;;;21.63;10.97;;;1.40;99.90;1.20;99424.00;;;;4996113;27;89841;-65
2021/12/08 10:06:26;;;;;;;19.00;11.13;;;1.60;99.90;1.10;99425.00;;;;4991067;27;89165;-66
2021/12/08 10:08:58;;;;;;;17.17;9.97;;;1.40;99.90;1.10;99414.00;;;;4991218;27;106446;-66
2021/12/08 10:11:29;;;;;;;20.33;12.00;;;1.40;99.90;1.10;99425.00;;;;4991513;27;87701;-67
2021/12/08 10:13:56;;;;;;;19.90;9.87;;;1.30;99.90;1.00;99415.00;;;;4989767;27;87840;-65
2021/12/08 10:16:21;;;;;;;20.00;9.90;;;1.30;99.90;1.00;99416.00;;;;4992283;27;88217;-66
2021/12/08 10:18:48;;;;;;;16.87;8.87;;;1.30;99.90;1.00;99428.00;;;;4991570;27;87655;-66
2021/12/08 10:21:14;;;;;;;16.17;10.63;;;1.30;99.90;1.00;99416.00;;;;4992885;27;86851;-66
2021/12/08 10:23:44;;;;;;;17.30;9.90;;;1.30;99.90;1.10;99413.00;;;;4992949;27;88841;-66
2021/12/08 10:26:11;;;;;;;17.97;11.47;;;1.20;99.90;1.00;99404.00;;;;4991292;27;88608;-66
2021/12/08 10:28:55;;;;;;;18.43;10.77;;;1.20;99.90;1.00;99401.00;;;;4991216;27;88678;-65
2021/12/08 10:31:31;;;;;;;17.23;10.30;;;1.20;99.90;1.10;99395.00;;;;4992985;27;88489;-66
2021/12/08 10:36:56;;;;;;;20.80;12.80;;;1.30;99.90;1.10;99395.00;;;;4996628;27;87993;-68
2021/12/08 10:39:35;;;;;;;17.13;10.30;;;1.30;99.90;1.20;99395.00;;;;4996052;27;87736;-65
2021/12/08 10:42:06;;;;;;;19.87;11.43;;;1.40;99.90;1.20;99388.00;;;;4994565;27;87725;-66
2021/12/08 10:44:51;;;;;;;23.00;10.90;;;0.60;99.90;1.30;99371.00;;;;4999653;27;89198;-65
2021/12/08 10:47:22;;;;;;;13.27;9.60;;;2.20;99.90;1.30;99377.00;;;;4995842;27;87815;-67
2021/12/08 10:55:17;;;;;;;29.10;17.80;;;1.50;99.90;1.40;99364.00;;;;4989044;27;89296;-66
2021/12/08 10:57:49;;;;;;;20.87;10.83;;;1.60;99.90;1.40;99372.00;;;;4992445;27;88869;-67
2021/12/08 11:00:31;;;;;;;18.50;9.73;;;1.70;99.90;1.50;99367.00;;;;5000550;27;87729;-67
2021/12/08 11:03:11;;;;;;;19.10;10.03;;;1.70;99.90;1.50;99366.00;;;;4994906;27;88135;-67
2021/12/08 11:06:04;;;;;;;23.93;10.93;;;1.70;99.90;1.50;99382.00;;;;4993694;27;88834;-67
2021/12/08 11:08:40;;;;;;;17.03;11.23;;;1.80;99.90;1.50;99388.00;;;;4992429;27;87962;-66
2021/12/08 11:11:20;;;;;;;13.80;9.63;;;1.70;99.90;1.50;99388.00;;;;4993437;27;87684;-66
2021/12/08 11:13:56;;;;;;;15.80;9.03;;;1.70;99.90;1.50;99393.00;;;;4998346;27;87031;-67
2021/12/08 11:16:31;;;;;;;16.27;9.80;;;1.70;99.90;1.60;99388.00;;;;4996401;27;110664;-67
2021/12/08 11:19:15;;;;;;;14.83;8.80;;;1.80;99.90;1.50;99398.00;;;;5000301;27;87941;-67
2021/12/08 11:21:46;;;;;;;16.50;9.40;;;1.70;99.90;1.50;99387.00;;;;4994402;27;89180;-67
2021/12/08 11:24:35;;;;;;;18.33;9.07;;;1.70;99.90;1.50;99384.00;;;;4994882;27;88079;-66
2021/12/08 11:27:07;;;;;;;27.77;17.10;;;1.70;99.90;1.50;99383.00;;;;4994553;27;88273;-66
2021/12/08 11:29:39;;;;;;;16.43;8.43;;;2.20;99.90;1.50;99371.00;;;;4993648;27;103733;-67
2021/12/08 11:32:12;;;;;;;15.17;8.67;;;1.70;99.90;1.50;99369.00;;;;4994584;27;96810;-67
2021/12/08 11:34:46;;;;;;;15.20;9.13;;;1.80;99.90;1.50;99365.00;;;;4994974;27;88046;-67
2021/12/08 11:37:16;;;;;;;17.40;9.70;;;1.80;99.90;1.60;99369.00;;;;4993544;27;104401;-68
2021/12/08 11:39:55;;;;;;;19.57;9.47;;;1.70;99.90;1.50;99371.00;;;;4994983;27;87896;-66
2021/12/08 11:42:28;;;;;;;33.83;18.00;;;1.80;99.90;1.60;99383.00;;;;4994641;27;88104;-67
2021/12/08 11:44:59;;;;;;;19.33;9.80;;;1.80;99.90;1.50;99368.00;;;;5001642;27;87929;-67
2021/12/08 11:47:33;;;;;;;19.83;10.57;;;1.80;99.90;1.50;99361.00;;;;5000219;27;89328;-66
2021/12/08 11:50:16;;;;;;;16.37;9.77;;;2.50;99.90;1.50;99353.00;;;;4993308;27;88953;-67